Terminal Aerodrome Forecast
Issued by NWS

Home | Current Version | Previous Version | Text Only | Print | Product List | Glossary On
Versions: 1 2 3 4 5 6 7 8 9 10 11 12 13 14 15
000
FTUS44 KBMX 012300
TAFTOI
TAF
KTOI 012325Z 0200/0224 03005KT P6SM BKN150
      TEMPO 0210/0214 BKN015
     FM021400 04006KT P6SM VCSH BKN015
     FM021700 04007KT P6SM VCTS BKN030CB=

USA.gov is the U.S. government's official web portal to all federal, state and local government web resources and services.